createdAt,value
2022-08-22T00:01:49.922Z,14.75
2022-08-22T00:02:55.896Z,18.97
2022-08-22T00:04:37.565Z,14.76
2022-08-22T00:07:21.967Z,14.78
2022-08-22T00:10:25.510Z,14.81
2022-08-22T00:13:07.576Z,14.85
2022-08-22T00:15:48.969Z,14.88
2022-08-22T00:18:35.627Z,14.92
2022-08-22T00:21:17.488Z,14.95
2022-08-22T00:24:27.903Z,14.99
2022-08-22T00:27:17.114Z,15.03
2022-08-22T00:30:12.806Z,15.06
2022-08-22T00:32:50.768Z,15.07
2022-08-22T00:35:27.097Z,15.11
2022-08-22T00:38:22.567Z,15.12
2022-08-22T00:41:09.414Z,15.14
2022-08-22T00:44:12.856Z,15.12
2022-08-22T00:47:21.153Z,15.16
2022-08-22T00:50:15.478Z,15.14
2022-08-22T00:52:57.388Z,15.15
2022-08-22T00:55:41.480Z,15.19
2022-08-22T00:58:45.367Z,15.18
2022-08-22T01:01:26.325Z,15.18
2022-08-22T01:04:25.003Z,15.21
2022-08-22T01:07:00.210Z,15.23
2022-08-22T01:09:53.229Z,15.24
2022-08-22T01:12:42.181Z,15.25
2022-08-22T01:15:22.633Z,15.27
2022-08-22T01:18:13.720Z,15.26
2022-08-22T01:21:07.838Z,15.23
2022-08-22T01:23:43.224Z,15.22
2022-08-22T01:26:30.742Z,15.24
2022-08-22T01:29:27.794Z,15.27
2022-08-22T01:32:48.847Z,15.25
2022-08-22T01:35:50.489Z,15.25
2022-08-22T01:38:52.170Z,15.24
2022-08-22T01:41:48.427Z,15.26
2022-08-22T01:44:50.179Z,15.25
2022-08-22T01:47:36.982Z,15.25
2022-08-22T01:50:35.678Z,15.22
2022-08-22T01:53:29.721Z,15.21
2022-08-22T01:56:13.555Z,15.22
2022-08-22T01:58:58.682Z,15.22
2022-08-22T02:01:54.852Z,15.22
2022-08-22T02:04:33.282Z,15.20
2022-08-22T02:07:20.889Z,15.19
2022-08-22T02:10:15.720Z,15.22
2022-08-22T02:13:03.921Z,15.28
2022-08-22T02:15:39.074Z,15.31
2022-08-22T02:18:24.578Z,15.33
2022-08-22T02:21:05.352Z,15.36
2022-08-22T02:23:56.085Z,15.40
2022-08-22T02:26:45.463Z,15.48
2022-08-22T02:29:28.233Z,15.56
2022-08-22T02:32:14.601Z,15.61
2022-08-22T02:35:07.462Z,15.65
2022-08-22T02:37:57.425Z,15.67
2022-08-22T02:41:03.927Z,15.68
2022-08-22T02:44:14.082Z,15.69
2022-08-22T02:46:51.444Z,15.65
2022-08-22T02:49:49.037Z,15.59
2022-08-22T02:52:28.965Z,15.53
2022-08-22T02:55:13.090Z,15.46
2022-08-22T02:58:00.733Z,15.42
2022-08-22T03:01:12.560Z,15.36
2022-08-22T03:03:47.021Z,15.32
2022-08-22T03:06:40.278Z,15.31
2022-08-22T03:09:15.378Z,15.32
2022-08-22T03:11:59.819Z,15.30
2022-08-22T03:14:43.311Z,15.29
2022-08-22T03:17:38.814Z,15.24
2022-08-22T03:20:20.747Z,15.21
2022-08-22T03:23:05.464Z,15.18
2022-08-22T03:26:01.962Z,15.13
2022-08-22T03:28:59.970Z,15.05
2022-08-22T03:31:32.828Z,15.05
2022-08-22T03:34:22.388Z,15.01
2022-08-22T03:37:32.630Z,14.96
2022-08-22T03:40:31.670Z,14.89
2022-08-22T03:43:15.041Z,14.84
2022-08-22T03:45:59.396Z,14.77
2022-08-22T03:49:01.610Z,14.66
2022-08-22T03:51:55.814Z,14.54
2022-08-22T03:54:39.697Z,14.46
2022-08-22T03:57:18.167Z,14.37
2022-08-22T04:00:10.018Z,14.29
2022-08-22T04:03:10.314Z,14.16
2022-08-22T04:06:30.148Z,14.06
2022-08-22T04:09:21.534Z,13.93
2022-08-22T04:12:42.264Z,13.83
2022-08-22T04:15:14.612Z,13.69
2022-08-22T04:18:07.842Z,13.58
2022-08-22T04:20:43.903Z,13.47
2022-08-22T04:23:25.539Z,13.39
2022-08-22T04:26:08.547Z,13.35
2022-08-22T04:28:57.060Z,13.36
2022-08-22T04:31:46.451Z,13.35
2022-08-22T04:34:31.683Z,13.35
2022-08-22T04:37:29.922Z,13.38
2022-08-22T04:40:23.869Z,13.43
2022-08-22T04:43:08.931Z,13.44
2022-08-22T04:45:58.349Z,13.43
2022-08-22T04:48:50.446Z,13.40
2022-08-22T04:51:38.080Z,13.41
2022-08-22T04:54:47.961Z,13.45
2022-08-22T04:57:41.594Z,13.53
2022-08-22T05:00:15.999Z,13.63
2022-08-22T05:02:55.998Z,13.75
2022-08-22T05:05:37.926Z,13.88
2022-08-22T05:08:16.789Z,14.05
2022-08-22T05:10:52.069Z,14.18
2022-08-22T05:13:39.676Z,14.28
2022-08-22T05:16:18.983Z,14.35
2022-08-22T05:18:59.360Z,14.40
2022-08-22T05:21:37.566Z,14.47
2022-08-22T05:24:28.689Z,14.56
2022-08-22T05:27:18.196Z,14.69
2022-08-22T05:29:54.502Z,14.86
2022-08-22T05:32:40.427Z,15.02
2022-08-22T05:35:16.674Z,15.15
2022-08-22T05:37:54.994Z,15.35
2022-08-22T05:40:29.989Z,15.55
2022-08-22T05:43:02.457Z,15.76
2022-08-22T05:45:37.332Z,15.94
2022-08-22T05:48:20.379Z,16.06
2022-08-22T05:50:58.549Z,16.17
2022-08-22T05:53:38.573Z,16.28
2022-08-22T05:56:19.146Z,16.44
2022-08-22T05:58:54.199Z,16.65
2022-08-22T06:01:31.327Z,16.78
2022-08-22T06:04:16.002Z,16.97
2022-08-22T06:06:59.900Z,17.21
2022-08-22T06:09:58.752Z,17.43
2022-08-22T06:12:38.918Z,17.58
2022-08-22T06:15:21.283Z,17.75
2022-08-22T06:18:01.856Z,17.94
2022-08-22T06:20:53.945Z,18.08
2022-08-22T06:23:41.970Z,18.19
2022-08-22T06:26:21.232Z,18.31
2022-08-22T06:28:59.228Z,18.42
2022-08-22T06:31:41.669Z,18.54
2022-08-22T06:34:27.419Z,18.70
2022-08-22T06:37:05.085Z,18.80
2022-08-22T06:39:43.502Z,18.78
2022-08-22T06:42:25.479Z,18.85
2022-08-22T06:45:12.168Z,18.97
2022-08-22T06:47:49.880Z,19.04
2022-08-22T06:50:36.576Z,19.14
2022-08-22T06:53:33.735Z,19.27
2022-08-22T06:56:07.435Z,19.26
2022-08-22T06:58:44.813Z,19.26
2022-08-22T07:01:24.430Z,19.27
2022-08-22T07:04:07.454Z,19.34
2022-08-22T07:06:44.185Z,19.39
2022-08-22T07:09:29.314Z,19.44
2022-08-22T07:12:13.974Z,19.44
2022-08-22T07:14:51.961Z,19.46
2022-08-22T07:17:31.089Z,19.52
2022-08-22T07:20:12.006Z,19.68
2022-08-22T07:22:56.182Z,19.72
2022-08-22T07:25:31.630Z,19.91
2022-08-22T07:28:36.574Z,19.93
2022-08-22T07:31:30.786Z,20.07
2022-08-22T07:34:28.999Z,20.33
2022-08-22T07:37:10.458Z,20.73
2022-08-22T07:39:55.042Z,20.94
2022-08-22T07:42:58.565Z,21.25
2022-08-22T07:45:47.500Z,21.56
2022-08-22T07:48:28.404Z,22.02
2022-08-22T07:51:13.560Z,23.01
2022-08-22T07:53:51.866Z,23.78
2022-08-22T07:56:31.804Z,24.32
2022-08-22T07:59:13.325Z,24.63
2022-08-22T08:01:51.760Z,25.07
2022-08-22T08:04:29.938Z,25.42
2022-08-22T08:07:08.231Z,26.00
2022-08-22T08:09:52.920Z,26.45
2022-08-22T08:12:34.891Z,27.02
2022-08-22T08:15:15.423Z,26.79
2022-08-22T08:17:54.554Z,26.60
2022-08-22T08:20:29.215Z,26.70
2022-08-22T08:23:03.566Z,26.79
2022-08-22T08:25:59.315Z,26.79
2022-08-22T08:28:35.163Z,26.85
2022-08-22T08:31:31.835Z,26.59
2022-08-22T08:34:34.676Z,26.41
2022-08-22T08:37:45.066Z,26.38
2022-08-22T08:40:39.563Z,26.47
2022-08-22T08:43:27.962Z,26.58
2022-08-22T08:46:14.121Z,26.63
2022-08-22T08:48:55.398Z,26.80
2022-08-22T08:52:05.426Z,27.06
2022-08-22T08:54:47.221Z,27.53
2022-08-22T08:57:50.770Z,27.69
2022-08-22T09:00:45.771Z,27.84
2022-08-22T09:03:30.981Z,28.11
2022-08-22T09:06:52.761Z,28.26
2022-08-22T09:09:52.348Z,28.12
2022-08-22T09:12:56.971Z,28.05
2022-08-22T09:15:55.040Z,27.89
2022-08-22T09:18:59.121Z,27.77
2022-08-22T09:21:54.970Z,27.74
2022-08-22T09:25:08.179Z,27.65
2022-08-22T09:28:06.080Z,27.65
2022-08-22T09:30:57.340Z,27.56
2022-08-22T09:33:41.925Z,27.57
2022-08-22T09:36:21.044Z,27.55
2022-08-22T09:39:25.756Z,27.38
2022-08-22T09:42:10.790Z,27.38
2022-08-22T09:44:53.654Z,27.49
2022-08-22T09:47:34.098Z,27.44
2022-08-22T09:50:18.250Z,27.53
2022-08-22T09:52:58.568Z,27.48
2022-08-22T09:55:47.544Z,27.72
2022-08-22T09:58:44.562Z,27.88
2022-08-22T10:01:48.092Z,27.91
2022-08-22T10:04:43.764Z,28.10
2022-08-22T10:07:29.511Z,28.39
2022-08-22T10:10:54.952Z,28.54
2022-08-22T10:13:36.727Z,28.81
2022-08-22T10:16:14.957Z,28.77
2022-08-22T10:19:12.093Z,28.60
2022-08-22T10:22:22.269Z,28.07
2022-08-22T10:25:08.153Z,28.29
2022-08-22T10:27:52.378Z,28.83
2022-08-22T10:30:33.265Z,30.01
2022-08-22T10:33:20.070Z,32.04
2022-08-22T10:36:05.212Z,32.96
2022-08-22T10:38:52.434Z,32.06
2022-08-22T10:41:45.493Z,31.82
2022-08-22T10:44:30.392Z,33.18
2022-08-22T10:47:39.862Z,33.14
2022-08-22T10:50:23.611Z,32.61
2022-08-22T10:53:29.473Z,33.12
2022-08-22T10:56:21.482Z,33.20
2022-08-22T10:59:29.292Z,33.10
2022-08-22T11:02:18.716Z,33.19
2022-08-22T11:05:14.584Z,33.16
2022-08-22T11:08:17.354Z,33.29
2022-08-22T11:11:06.414Z,33.51
2022-08-22T11:14:11.713Z,33.91
2022-08-22T11:17:28.922Z,34.19
2022-08-22T11:20:24.566Z,32.80
2022-08-22T11:23:27.879Z,31.96
2022-08-22T11:26:14.368Z,31.76
2022-08-22T11:29:13.578Z,31.84
2022-08-22T11:32:07.886Z,31.68
2022-08-22T11:34:46.423Z,31.91
2022-08-22T11:37:43.464Z,32.40
2022-08-22T11:40:44.256Z,32.48
2022-08-22T11:43:41.618Z,32.17
2022-08-22T11:46:38.033Z,32.28
2022-08-22T11:49:27.058Z,32.29
2022-08-22T11:52:18.518Z,32.14
2022-08-22T11:54:59.847Z,32.71
2022-08-22T11:57:48.284Z,32.66
2022-08-22T12:00:38.330Z,32.54
2022-08-22T12:03:55.686Z,32.20
2022-08-22T12:07:03.690Z,31.61
2022-08-22T12:09:45.372Z,31.36
2022-08-22T12:12:48.320Z,31.02
2022-08-22T12:15:27.855Z,30.68
2022-08-22T12:18:27.507Z,30.62
2022-08-22T12:21:36.766Z,30.69
2022-08-22T12:24:34.421Z,30.73
2022-08-22T12:27:28.879Z,30.52
2022-08-22T12:30:12.948Z,30.12
2022-08-22T12:33:21.948Z,29.71
2022-08-22T12:36:18.171Z,29.23
2022-08-22T12:39:00.096Z,28.68
2022-08-22T12:41:38.598Z,28.33
2022-08-22T12:44:20.209Z,28.35
2022-08-22T12:47:11.741Z,28.58
2022-08-22T12:50:06.061Z,28.39
2022-08-22T12:52:58.681Z,28.11
2022-08-22T12:55:52.066Z,28.19
2022-08-22T12:58:51.989Z,28.45
2022-08-22T13:01:34.175Z,28.55
2022-08-22T13:04:32.398Z,28.58
2022-08-22T13:07:36.754Z,28.82
2022-08-22T13:10:17.382Z,28.95
2022-08-22T13:12:54.031Z,28.94
2022-08-22T13:15:31.750Z,29.05
2022-08-22T13:18:29.900Z,29.08
2022-08-22T13:21:10.394Z,29.69
2022-08-22T13:23:51.597Z,30.22
2022-08-22T13:26:33.479Z,31.02
2022-08-22T13:29:27.158Z,31.46
2022-08-22T13:32:02.391Z,31.25
2022-08-22T13:34:43.709Z,31.20
2022-08-22T13:37:24.510Z,31.16
2022-08-22T13:40:04.702Z,31.05
2022-08-22T13:42:45.505Z,30.98
2022-08-22T13:45:26.652Z,31.14
2022-08-22T13:48:03.487Z,31.06
2022-08-22T13:51:01.213Z,30.98
2022-08-22T13:53:49.360Z,30.62
2022-08-22T13:56:43.006Z,30.40
2022-08-22T13:59:50.285Z,30.82
2022-08-22T14:02:45.753Z,31.18
2022-08-22T14:05:42.391Z,31.46
2022-08-22T14:08:31.835Z,31.85
2022-08-22T14:11:07.078Z,31.89
2022-08-22T14:14:00.469Z,32.31
2022-08-22T14:16:45.159Z,32.70
2022-08-22T14:19:52.957Z,32.84
2022-08-22T14:22:35.085Z,32.78
2022-08-22T14:25:21.556Z,31.20
2022-08-22T14:28:01.037Z,29.95
2022-08-22T14:31:04.093Z,29.31
2022-08-22T14:34:03.277Z,28.85
2022-08-22T14:36:43.008Z,29.31
2022-08-22T14:39:26.641Z,30.26
2022-08-22T14:42:15.495Z,30.31
2022-08-22T14:45:08.657Z,30.49
2022-08-22T14:48:14.562Z,31.40
2022-08-22T14:51:14.939Z,32.64
2022-08-22T14:53:48.099Z,33.35
2022-08-22T14:56:28.111Z,33.63
2022-08-22T14:59:07.635Z,32.60
2022-08-22T15:02:13.711Z,31.67
2022-08-22T15:04:49.740Z,31.12
2022-08-22T15:07:33.334Z,30.57
2022-08-22T15:10:23.786Z,29.98
2022-08-22T15:12:59.620Z,29.41
2022-08-22T15:15:49.506Z,29.00
2022-08-22T15:18:26.568Z,28.80
2022-08-22T15:21:12.621Z,28.80
2022-08-22T15:23:46.837Z,28.75
2022-08-22T15:26:32.915Z,28.79
2022-08-22T15:29:17.550Z,28.74
2022-08-22T15:31:52.643Z,28.67
2022-08-22T15:34:39.213Z,29.02
2022-08-22T15:37:17.779Z,29.72
2022-08-22T15:40:02.859Z,30.51
2022-08-22T15:42:45.725Z,31.13
2022-08-22T15:45:28.561Z,30.42
2022-08-22T15:48:06.300Z,29.71
2022-08-22T15:50:41.831Z,29.52
2022-08-22T15:53:44.427Z,29.60
2022-08-22T15:56:25.740Z,29.61
2022-08-22T15:59:24.200Z,29.43
2022-08-22T16:02:22.567Z,29.32
2022-08-22T16:05:07.911Z,28.95
2022-08-22T16:07:44.765Z,28.90
2022-08-22T16:10:20.241Z,29.72
2022-08-22T16:13:14.111Z,29.56
2022-08-22T16:15:55.717Z,29.55
2022-08-22T16:18:39.169Z,29.07
2022-08-22T16:21:34.654Z,28.41
2022-08-22T16:24:07.107Z,27.82
2022-08-22T16:26:43.771Z,27.47
2022-08-22T16:29:33.875Z,27.14
2022-08-22T16:32:21.995Z,26.89
2022-08-22T16:34:54.592Z,26.80
2022-08-22T16:37:39.506Z,26.66
2022-08-22T16:40:22.748Z,26.53
2022-08-22T16:43:17.018Z,27.29
2022-08-22T16:45:49.653Z,27.56
2022-08-22T16:48:33.393Z,27.48
2022-08-22T16:51:15.923Z,27.30
2022-08-22T16:54:10.326Z,27.06
2022-08-22T16:57:02.146Z,26.78
2022-08-22T16:59:40.966Z,26.56
2022-08-22T17:03:01.191Z,26.47
2022-08-22T17:05:47.283Z,26.56
2022-08-22T17:08:33.930Z,26.59
2022-08-22T17:11:45.689Z,26.54
2022-08-22T17:14:34.307Z,26.44
2022-08-22T17:17:18.998Z,27.00
2022-08-22T17:20:06.506Z,27.56
2022-08-22T17:22:52.285Z,27.65
2022-08-22T17:25:34.893Z,27.11
2022-08-22T17:28:19.736Z,26.51
2022-08-22T17:31:07.594Z,25.96
2022-08-22T17:34:21.027Z,25.46
2022-08-22T17:37:07.518Z,25.04
2022-08-22T17:39:58.129Z,24.81
2022-08-22T17:43:09.285Z,24.64
2022-08-22T17:45:55.227Z,24.47
2022-08-22T17:48:59.291Z,24.32
2022-08-22T17:51:43.778Z,24.20
2022-08-22T17:54:34.320Z,24.09
2022-08-22T17:57:58.388Z,23.92
2022-08-22T18:00:39.149Z,23.63
2022-08-22T18:03:35.408Z,23.45
2022-08-22T18:06:30.447Z,23.36
2022-08-22T18:09:17.054Z,23.28
2022-08-22T18:12:01.109Z,23.21
2022-08-22T18:14:45.100Z,23.17
2022-08-22T18:17:44.322Z,23.12
2022-08-22T18:20:31.331Z,22.98
2022-08-22T18:23:28.379Z,22.85
2022-08-22T18:26:28.233Z,22.76
2022-08-22T18:29:08.493Z,22.73
2022-08-22T18:32:01.128Z,22.72
2022-08-22T18:34:56.042Z,22.68
2022-08-22T18:37:32.885Z,22.65
2022-08-22T18:40:27.556Z,22.62
2022-08-22T18:43:05.735Z,22.61
2022-08-22T18:45:44.688Z,22.60
2022-08-22T18:49:05.438Z,22.65
2022-08-22T18:51:38.780Z,22.69
2022-08-22T18:54:11.437Z,22.71
2022-08-22T18:56:58.426Z,22.74
2022-08-22T18:59:49.089Z,22.76
2022-08-22T19:02:51.146Z,22.76
2022-08-22T19:05:43.757Z,22.73
2022-08-22T19:08:53.534Z,22.68
2022-08-22T19:11:51.166Z,22.67
2022-08-22T19:14:48.501Z,22.62
2022-08-22T19:17:40.267Z,22.59
2022-08-22T19:20:48.425Z,22.58
2022-08-22T19:23:32.768Z,22.54
2022-08-22T19:26:20.675Z,22.49
2022-08-22T19:29:08.746Z,22.44
2022-08-22T19:31:52.627Z,22.44
2022-08-22T19:34:25.008Z,22.42
2022-08-22T19:37:30.708Z,22.37
2022-08-22T19:40:09.084Z,22.29
2022-08-22T19:42:44.116Z,22.27
2022-08-22T19:45:28.767Z,22.24
2022-08-22T19:48:13.077Z,22.22
2022-08-22T19:50:46.287Z,22.18
2022-08-22T19:53:32.469Z,22.14
2022-08-22T19:56:13.558Z,22.07
2022-08-22T19:59:19.355Z,22.01
2022-08-22T20:02:01.123Z,21.98
2022-08-22T20:05:03.945Z,21.97
2022-08-22T20:07:48.241Z,21.93
2022-08-22T20:10:42.555Z,21.89
2022-08-22T20:13:24.760Z,21.80
2022-08-22T20:16:07.753Z,21.70
2022-08-22T20:19:07.801Z,21.60
2022-08-22T20:21:59.866Z,21.55
2022-08-22T20:24:43.240Z,21.52
2022-08-22T20:27:30.650Z,21.46
2022-08-22T20:30:06.291Z,21.39
2022-08-22T20:32:51.267Z,21.33
2022-08-22T20:35:51.190Z,21.23
2022-08-22T20:38:32.273Z,21.18
2022-08-22T20:41:30.455Z,21.14
2022-08-22T20:44:12.297Z,21.15
2022-08-22T20:46:55.011Z,21.13
2022-08-22T20:49:43.169Z,21.09
2022-08-22T20:52:23.801Z,21.09
2022-08-22T20:55:01.129Z,21.03
2022-08-22T20:57:43.383Z,20.95
2022-08-22T21:00:23.026Z,20.87
2022-08-22T21:03:21.019Z,20.82
2022-08-22T21:05:53.463Z,20.77
2022-08-22T21:08:26.574Z,20.70
2022-08-22T21:11:23.229Z,20.63
2022-08-22T21:13:55.769Z,20.47
2022-08-22T21:16:32.830Z,20.33
2022-08-22T21:19:17.477Z,20.19
2022-08-22T21:21:49.987Z,19.98
2022-08-22T21:24:22.443Z,19.81
2022-08-22T21:27:00.784Z,19.63
2022-08-22T21:29:44.124Z,19.46
2022-08-22T21:32:25.047Z,19.31
2022-08-22T21:34:58.234Z,19.18
2022-08-22T21:37:36.038Z,19.05
2022-08-22T21:40:31.023Z,18.96
2022-08-22T21:43:29.768Z,18.87
2022-08-22T21:46:03.886Z,18.78
2022-08-22T21:48:43.898Z,18.70
2022-08-22T21:51:41.770Z,18.65
2022-08-22T21:54:21.597Z,18.61
2022-08-22T21:57:09.709Z,18.58
2022-08-22T22:00:00.493Z,18.52
2022-08-22T22:02:40.801Z,18.44
2022-08-22T22:05:17.570Z,18.40
2022-08-22T22:07:49.986Z,18.40
2022-08-22T22:10:23.115Z,18.40
2022-08-22T22:12:58.679Z,18.41
2022-08-22T22:15:39.483Z,18.38
2022-08-22T22:18:17.751Z,18.30
2022-08-22T22:20:52.383Z,18.25
2022-08-22T22:23:25.759Z,18.20
2022-08-22T22:26:01.176Z,18.21
2022-08-22T22:28:40.977Z,18.15
2022-08-22T22:31:14.122Z,18.05
2022-08-22T22:33:46.626Z,17.95
2022-08-22T22:36:22.811Z,17.83
2022-08-22T22:38:55.301Z,17.73
2022-08-22T22:41:27.772Z,17.61
2022-08-22T22:44:00.247Z,17.48
2022-08-22T22:46:32.720Z,17.36
2022-08-22T22:49:05.801Z,17.25
2022-08-22T22:51:38.281Z,17.19
2022-08-22T22:54:11.243Z,17.14
2022-08-22T22:56:43.802Z,17.15
2022-08-22T22:59:24.717Z,17.10
2022-08-22T23:02:01.487Z,17.03
2022-08-22T23:04:35.990Z,16.96
2022-08-22T23:07:10.103Z,16.90
2022-08-22T23:09:44.886Z,16.81
2022-08-22T23:12:17.813Z,16.74
2022-08-22T23:14:54.629Z,16.67
2022-08-22T23:17:27.822Z,16.65
2022-08-22T23:20:00.317Z,16.63
2022-08-22T23:22:32.841Z,16.57
2022-08-22T23:25:05.446Z,16.46
2022-08-22T23:27:38.278Z,16.41
2022-08-22T23:30:11.681Z,16.41
2022-08-22T23:32:44.141Z,16.39
2022-08-22T23:35:16.707Z,16.32
2022-08-22T23:37:49.165Z,16.25
2022-08-22T23:40:21.640Z,16.15
2022-08-22T23:42:54.069Z,16.07
2022-08-22T23:45:28.679Z,15.99
2022-08-22T23:48:01.223Z,15.93
2022-08-22T23:50:34.748Z,15.89
2022-08-22T23:53:08.964Z,15.84
2022-08-22T23:55:41.371Z,15.81
2022-08-22T23:58:15.334Z,15.78
